Dades meteomassalio
Diari Summary for Febrer 24, 2017 Units:  Metric    English   Both
« Previous Day
Next Day »
Diari Semanal Mensual Anual Personalitzat
  Maxima: Minima: Mijana:
Temperatura: -17.8 °C -13.8 °C -12 °C
Rosada: -17.8 °C -17.3 °C -14.7 °C
Humitat: Humidity % 54 % 73 %
Velocitat del vent: 0 km/h 0 km/h 28.3 km/h
Racha vent: 0 km/h - -
Vent:- - WNW
Pressio: 0 hPa 34313.7 hPa -
Pluja: 12.7 mm    
Historical Graphs
 
 
Tabular Data for Febrer 24, 2017
Time Temperature Dew Point Pressure Wind Wind Speed Wind Gust Humidity Rainfall Rate (Hourly) solar Conditions
-17.8 °C -17.8 °C 0 hPa Calm     Humidity % 0 mm SolarRadiationWatts/m^2 W/m2 Conditions
00:03 -13.1 °C -13.8 °C 34371.3 hPa Calm     91 % 0 mm 0.0 W/m2 CLR
00:08 -13.2 °C -13.9 °C 34371.3 hPa Calm     91 % 0 mm 0.0 W/m2 CLR
00:13 -13.2 °C -13.9 °C 34371.3 hPa Calm     91 % 0 mm 0.0 W/m2 CLR
00:18 -13.2 °C -14 °C 34371.3 hPa Calm     91 % 0 mm 0.0 W/m2 CLR
00:23 -13.3 °C -14.1 °C 34371.3 hPa Calm     91 % 0 mm 0.0 W/m2 CLR
00:28 -13.3 °C -13.9 °C 34371.3 hPa NW 3.1 km/h   92 % 0 mm 0.0 W/m2 CLR
00:33 -13.2 °C -14 °C 34371.3 hPa Calm     91 % 0 mm 0.0 W/m2 CLR
00:38 -13.3 °C -14.1 °C 34371.3 hPa Calm     90 % 0 mm 0.0 W/m2 CLR
00:43 -13.3 °C -14.1 °C 34371.3 hPa Calm     91 % 0 mm 0.0 W/m2 CLR
00:48 -13.3 °C -14.1 °C 34371.3 hPa Calm     91 % 0 mm 0.0 W/m2 CLR
00:53 -13.4 °C -14.1 °C 34384.8 hPa Calm     91 % 0 mm 0.0 W/m2 CLR
00:58 -13.4 °C -14.2 °C 34384.8 hPa Calm     91 % 0 mm 0.0 W/m2 CLR
01:03 -13.4 °C -14.2 °C 34384.8 hPa Calm     91 % 0 mm 0.0 W/m2 CLR
01:08 -13.4 °C -14.1 °C 34384.8 hPa Calm     92 % 0 mm 0.0 W/m2 CLR
01:13 -13.4 °C -14.1 °C 34395 hPa Calm     91 % 0 mm 0.0 W/m2 CLR
01:18 -13.4 °C -14.2 °C 34384.8 hPa Calm     91 % 0 mm 0.0 W/m2 CLR
01:23 -13.4 °C -14.2 °C 34395 hPa Calm     91 % 0 mm 0.0 W/m2 CLR
01:28 -13.4 °C -14.2 °C 34395 hPa Calm     91 % 0 mm 0.0 W/m2 CLR
01:33 -13.3 °C -14 °C 34395 hPa WSW 11.9 km/h 11.9 km/h 92 % 0 mm 0.0 W/m2 CLR
01:38 -13.1 °C -13.8 °C 34395 hPa SW 15 km/h 15 km/h 92 % 0 mm 0.0 W/m2 CLR
01:43 -13 °C -13.8 °C 34395 hPa West 9 km/h 9 km/h 91 % 0 mm 0.0 W/m2 CLR
01:48 -12.9 °C -13.8 °C 34384.8 hPa West 15 km/h 15 km/h 90 % 0 mm 0.0 W/m2 CLR
01:53 -12.9 °C -13.7 °C 34395 hPa Calm     90 % 0 mm 0.0 W/m2 CLR
01:58 -12.9 °C -13.8 °C 34395 hPa SSW 9 km/h 9 km/h 89 % 0 mm 0.0 W/m2 CLR
01:59 -12.9 °C -13.8 °C 34395 hPa SSW 9 km/h   89 % 0 mm 0.0 W/m2 CLR
02:04 -12.9 °C -13.9 °C 34395 hPa Calm     89 % 0 mm 0.0 W/m2 CLR
02:09 -13 °C -13.8 °C 34395 hPa Calm     90 % 0 mm 0.0 W/m2 CLR
02:14 -13 °C -13.8 °C 34384.8 hPa Calm     90 % 0 mm 0.0 W/m2 CLR
02:19 -12.9 °C -13.8 °C 34384.8 hPa Calm     90 % 0 mm 0.0 W/m2 CLR
02:24 -13 °C -13.8 °C 34384.8 hPa Calm     90 % 0 mm 0.0 W/m2 CLR
02:29 -13 °C -13.8 °C 34371.3 hPa Calm     90 % 0 mm 0.0 W/m2 CLR
02:34 -12.9 °C -13.8 °C 34371.3 hPa West 9 km/h 9 km/h 90 % 0 mm 0.0 W/m2 CLR
02:39 -12.7 °C -13.7 °C 34371.3 hPa Calm     89 % 0 mm 0.0 W/m2 CLR
02:44 -12.7 °C -13.8 °C 34361.1 hPa WSW 15.6 km/h 15.6 km/h 88 % 0 mm 0.0 W/m2 CLR
02:49 -12.7 °C -13.7 °C 34361.1 hPa WSW 11.9 km/h 11.9 km/h 88 % 0 mm 0.0 W/m2 CLR
02:54 -12.6 °C -13.8 °C 34361.1 hPa WSW 10.3 km/h 10.3 km/h 87 % 0 mm 0.0 W/m2 CLR
02:59 -12.6 °C -13.8 °C 34361.1 hPa Calm     87 % 0 mm 0.0 W/m2 CLR
03:04 -12.7 °C -13.8 °C 34361.1 hPa Calm     87 % 0 mm 0.0 W/m2 CLR
03:09 -12.8 °C -13.8 °C 34361.1 hPa Calm     88 % 0 mm 0.0 W/m2 CLR
03:14 -12.9 °C -13.9 °C 34361.1 hPa Calm     88 % 0 mm 0.0 W/m2 CLR
03:19 -12.9 °C -13.9 °C 34361.1 hPa Calm     88 % 0 mm 0.0 W/m2 CLR
03:24 -12.9 °C -13.8 °C 34361.1 hPa Calm     89 % 0 mm 0.0 W/m2 CLR
03:29 -12.9 °C -13.9 °C 34347.6 hPa Calm     89 % 0 mm 0.0 W/m2 CLR
03:34 -12.8 °C -13.8 °C 34347.6 hPa Calm     89 % 0 mm 0.0 W/m2 CLR
03:39 -12.8 °C -13.8 °C 34347.6 hPa Calm     88 % 0 mm 0.0 W/m2 CLR
03:44 -12.6 °C -13.7 °C 34347.6 hPa SW 10.3 km/h 10.3 km/h 88 % 0 mm 0.0 W/m2 CLR
03:49 -12.4 °C -13.6 °C 34337.4 hPa Calm     87 % 0 mm 0.0 W/m2 CLR
03:54 -12.4 °C -13.6 °C 34337.4 hPa Calm     86 % 0 mm 0.0 W/m2 CLR
03:59 -12.4 °C -13.7 °C 34337.4 hPa Calm     85 % 0 mm 0.0 W/m2 CLR
04:04 -12.4 °C -13.8 °C 34337.4 hPa Calm     85 % 0 mm 0.0 W/m2 CLR
04:09 -12.5 °C -13.7 °C 34337.4 hPa Calm     86 % 0 mm 0.0 W/m2 CLR
04:14 -12.6 °C -13.8 °C 34337.4 hPa Calm     86 % 0 mm 0.0 W/m2 CLR
04:19 -12.6 °C -13.8 °C 34337.4 hPa Calm     86 % 0 mm 0.0 W/m2 CLR
04:24 -12.6 °C -13.8 °C 34337.4 hPa Calm     86 % 0 mm 0.0 W/m2 CLR
04:29 -12.6 °C -13.8 °C 34337.4 hPa Calm     86 % 0 mm 0.0 W/m2 CLR
04:34 -12.5 °C -13.7 °C 34327.3 hPa WSW 12.9 km/h 12.9 km/h 86 % 0 mm 0.0 W/m2 CLR
04:39 -12.3 °C -13.7 °C 34327.3 hPa WSW 15 km/h 15 km/h 85 % 0 mm 0.0 W/m2 CLR
04:44 -12.3 °C -13.7 °C 34327.3 hPa WSW 15 km/h 15 km/h 84 % 0 mm 0.0 W/m2 CLR
04:49 -12.3 °C -13.7 °C 34327.3 hPa SW 9 km/h 9 km/h 84 % 0 mm 0.0 W/m2 CLR
04:54 -12.3 °C -13.8 °C 34327.3 hPa Calm     84 % 0 mm 0.0 W/m2 CLR
04:59 -12.4 °C -13.7 °C 34327.3 hPa SW 9 km/h 9 km/h 85 % 0 mm 0.0 W/m2 CLR
05:04 -12.4 °C -13.8 °C 34313.7 hPa Calm     84 % 0 mm 0.0 W/m2 CLR
05:09 -12.4 °C -13.8 °C 34327.3 hPa WSW 6 km/h   84 % 0 mm 0.0 W/m2 CLR
05:14 -12.3 °C -13.8 °C 34327.3 hPa Calm     84 % 0 mm 0.0 W/m2 CLR
05:19 -12.3 °C -13.9 °C 34327.3 hPa West 15.6 km/h 15.6 km/h 83 % 0 mm 0.0 W/m2 CLR
05:24 -12.2 °C -13.8 °C 34327.3 hPa West 15.6 km/h 15.6 km/h 82 % 0 mm 0.0 W/m2 CLR
05:29 -12.1 °C -13.8 °C 34327.3 hPa WNW 20.9 km/h 20.9 km/h 81 % 0 mm 0.0 W/m2 CLR
05:34 -12.1 °C -13.9 °C 34327.3 hPa West 15.6 km/h 15.6 km/h 80 % 0 mm 0.0 W/m2 CLR
05:39 -12.1 °C -14 °C 34327.3 hPa West 20.9 km/h 20.9 km/h 79 % 0 mm 0.0 W/m2 CLR
05:44 -12.1 °C -14 °C 34327.3 hPa WNW 20.9 km/h 20.9 km/h 79 % 0 mm 0.0 W/m2 CLR
05:49 -12.1 °C -14.2 °C 34327.3 hPa WNW 20.8 km/h 20.8 km/h 77 % 0 mm 0.0 W/m2 CLR
05:54 -12 °C -14.1 °C 34327.3 hPa West 17.9 km/h 17.9 km/h 77 % 0 mm 0.0 W/m2 CLR
05:59 -12.1 °C -14.2 °C 34327.3 hPa WNW 23.8 km/h 23.8 km/h 77 % 0 mm 0.0 W/m2 CLR
06:04 -12.1 °C -14.2 °C 34313.7 hPa West 12.9 km/h 12.9 km/h 77 % 0 mm 0.0 W/m2 CLR
06:09 -12.1 °C -14.2 °C 34313.7 hPa WSW 23.8 km/h 23.8 km/h 77 % 0 mm 0.0 W/m2 CLR
06:14 -12.1 °C -14.3 °C 34313.7 hPa West 26.9 km/h 26.9 km/h 77 % 0 mm 0.0 W/m2 CLR
06:19 -12.2 °C -14.3 °C 34313.7 hPa West 20.9 km/h 20.9 km/h 77 % 0 mm 0.0 W/m2 CLR
06:24 -12.2 °C -14.3 °C 34313.7 hPa West 15 km/h 15 km/h 77 % 0 mm 0.0 W/m2 CLR
06:29 -12.3 °C -14.4 °C 34313.7 hPa WSW 7.7 km/h 7.7 km/h 77 % 0 mm 0.0 W/m2 CLR
06:34 -12.2 °C -14.3 °C 34313.7 hPa WSW 17.9 km/h 17.9 km/h 77 % 0 mm 0.0 W/m2 CLR
06:39 -12.2 °C -14.3 °C 34313.7 hPa West 20.9 km/h 20.9 km/h 77 % 0 mm 0.0 W/m2 CLR
06:44 -12.2 °C -14.3 °C 34313.7 hPa WNW 23.8 km/h 23.8 km/h 78 % 0 mm 0.0 W/m2 CLR
06:49 -12.2 °C -14.2 °C 34313.7 hPa West 35.7 km/h 35.7 km/h 78 % 0 mm 0.0 W/m2 CLR
06:54 -12.2 °C -14.2 °C 34313.7 hPa WNW 29.8 km/h 29.8 km/h 78 % 0 mm 0.0 W/m2 CLR
06:59 -12.2 °C -14.3 °C 34313.7 hPa West 38.8 km/h 38.8 km/h 78 % 0 mm 0.0 W/m2 CLR
07:05 -12.3 °C -14.3 °C 34313.7 hPa West 20.9 km/h 20.9 km/h 78 % 0 mm 0.0 W/m2 CLR
07:10 -12.2 °C -14.3 °C 34313.7 hPa West 11.9 km/h 11.9 km/h 78 % 0 mm 0.0 W/m2 CLR
07:15 -12.3 °C -14.3 °C 34327.3 hPa NW 20.9 km/h 20.9 km/h 78 % 0 mm 0.0 W/m2 CLR
07:20 -12.3 °C -14.3 °C 34327.3 hPa West 26.9 km/h 26.9 km/h 78 % 0 mm 0.0 W/m2 CLR
07:25 -12.3 °C -14.3 °C 34327.3 hPa SW 23.8 km/h 23.8 km/h 78 % 0 mm 0.0 W/m2 CLR
07:30 -12.3 °C -14.2 °C 34327.3 hPa WNW 33.6 km/h 33.6 km/h 79 % 0 mm 0.0 W/m2 CLR
07:35 -12.3 °C -14.2 °C 34327.3 hPa West 17.9 km/h 17.9 km/h 79 % 0 mm 0.0 W/m2 OVC
07:40 -12.3 °C -14.2 °C 34327.3 hPa WSW 20.9 km/h 20.9 km/h 79 % 0 mm 0.0 W/m2 OVC
07:45 -12.3 °C -14.2 °C 34327.3 hPa WSW 23.8 km/h 23.8 km/h 79 % 0 mm 0.0 W/m2 OVC
07:50 -12.3 °C -14.1 °C 34337.4 hPa Calm     80 % 0 mm 0.0 W/m2 OVC
07:55 -12.3 °C -14.1 °C 34337.4 hPa SW 15 km/h 15 km/h 80 % 0 mm 5.0 W/m2 OVC
08:00 -12.3 °C -14.1 °C 34337.4 hPa WSW 15.6 km/h 15.6 km/h 80 % 0 mm 5.0 W/m2 OVC
08:05 -12.3 °C -14.1 °C 34337.4 hPa WSW 11.9 km/h   80 % 0 mm 9.0 W/m2 BKN
08:10 -12.3 °C -14.1 °C 34347.6 hPa WNW 7.7 km/h 7.7 km/h 80 % 0 mm 12.0 W/m2 BKN
08:15 -12.3 °C -14.1 °C 34347.6 hPa WSW 20.9 km/h 20.9 km/h 80 % 0 mm 16.0 W/m2 BKN
08:20 -12.3 °C -14.1 °C 34361.1 hPa WNW 9 km/h 9 km/h 80 % 0 mm 16.0 W/m2 BKN
08:25 -12.3 °C -14 °C 34361.1 hPa NW 23.8 km/h 23.8 km/h 81 % 0 mm 12.0 W/m2 BKN
08:30 -12.3 °C -14 °C 34371.3 hPa West 23.8 km/h 23.8 km/h 81 % 0 mm 14.0 W/m2 BKN
08:35 -12.3 °C -14 °C 34371.3 hPa West 15 km/h 15 km/h 81 % 0 mm 21.0 W/m2 BKN
08:40 -12.3 °C -14 °C 34361.1 hPa West 20.9 km/h 20.9 km/h 81 % 0 mm 33.0 W/m2 BKN
08:45 -12.3 °C -13.9 °C 34371.3 hPa SW 15 km/h 15 km/h 82 % 0 mm 49.0 W/m2 BKN
08:50 -12.3 °C -13.9 °C 34371.3 hPa West 15.6 km/h 15.6 km/h 82 % 0 mm 58.0 W/m2 SCT
08:55 -12.3 °C -13.8 °C 34371.3 hPa West 26.9 km/h 26.9 km/h 83 % 0 mm 40.0 W/m2 SCT
09:00 -12.4 °C -13.8 °C 34371.3 hPa WNW 18.2 km/h 18.2 km/h 84 % 7.62 mm 33.0 W/m2 RA
09:05 -12.4 °C -13.8 °C 34384.8 hPa WNW 11.9 km/h 12.4 km/h 85 % 7.62 mm 35.0 W/m2 BKN
09:10 -12.5 °C -13.7 °C 34384.8 hPa WSW 11.9 km/h 11.9 km/h 86 % 12.7 mm 32.0 W/m2 RA
09:15 -12.6 °C -13.7 °C 34384.8 hPa West 6 km/h   87 % 12.7 mm 28.0 W/m2 BKN
09:20 -12.6 °C -13.6 °C 34371.3 hPa WSW 11.9 km/h 11.9 km/h 88 % 12.7 mm 46.0 W/m2 BKN
09:25 -12.6 °C -13.6 °C 34371.3 hPa West 12.9 km/h 12.9 km/h 88 % 12.7 mm 62.0 W/m2 BKN
09:30 -12.5 °C -13.6 °C 34371.3 hPa West 20.9 km/h 20.9 km/h 88 % 12.7 mm 70.0 W/m2 SCT
09:35 -12.4 °C -13.5 °C 34371.3 hPa West 9 km/h 9 km/h 88 % 12.7 mm 86.0 W/m2 FEW
09:40 -12.4 °C -13.4 °C 34371.3 hPa WNW 9 km/h 9 km/h 88 % 12.7 mm 93.0 W/m2 FEW
09:45 -12.3 °C -13.4 °C 34371.3 hPa Calm     88 % 12.7 mm 84.0 W/m2 CLR
09:50 -12.3 °C -13.4 °C 34371.3 hPa West 9 km/h 9 km/h 88 % 12.7 mm 67.0 W/m2 FEW
09:55 -12.3 °C -13.3 °C 34371.3 hPa WSW 12.9 km/h 12.9 km/h 88 % 7.62 mm 69.0 W/m2 FEW
10:00 -12.3 °C -13.3 °C 34371.3 hPa WSW 11.9 km/h 11.9 km/h 88 % 7.62 mm 58.0 W/m2 FEW
10:05 -12.2 °C -13.4 °C 34371.3 hPa WSW 20.9 km/h 20.9 km/h 87 % 7.62 mm 60.0 W/m2 SCT
10:10 -12.2 °C -13.3 °C 34371.3 hPa WSW 15.6 km/h 15.6 km/h 87 % 0 mm 56.0 W/m2 SCT
10:15 -12.1 °C -13.3 °C 34371.3 hPa West 25.9 km/h 25.9 km/h 86 % 0 mm 77.0 W/m2 SCT
10:20 -12.1 °C -13.4 °C 34371.3 hPa West 20.9 km/h 20.9 km/h 85 % 0 mm 95.0 W/m2 FEW
10:25 -11.9 °C -13.2 °C 34384.8 hPa West 9 km/h 9 km/h 86 % 0 mm 116.0 W/m2 CLR
10:30 -11.9 °C -13.2 °C 34384.8 hPa West 20.9 km/h 20.9 km/h 85 % 0 mm 153.0 W/m2 CLR
10:35 -11.8 °C -13.2 °C 34371.3 hPa West 26.9 km/h 26.9 km/h 85 % 0 mm 158.0 W/m2 CLR
10:40 -11.7 °C -13.2 °C 34371.3 hPa West 20.9 km/h 20.9 km/h 84 % 0 mm 163.0 W/m2 CLR
10:45 -11.7 °C -13.1 °C 34371.3 hPa West 17.9 km/h 17.9 km/h 84 % 0 mm 146.0 W/m2 CLR
10:50 -11.6 °C -13.2 °C 34371.3 hPa WSW 29.8 km/h 29.8 km/h 83 % 0 mm 162.0 W/m2 CLR
10:55 -11.5 °C -12.9 °C 34371.3 hPa WNW 26.9 km/h 26.9 km/h 84 % 0 mm 214.0 W/m2 CLR
11:00 -11.4 °C -13.1 °C 34371.3 hPa West 32.8 km/h 32.8 km/h 82 % 0 mm 230.0 W/m2 CLR
11:05 -11.3 °C -13.1 °C 34371.3 hPa WNW 47.6 km/h 47.6 km/h 81 % 0 mm 257.0 W/m2 CLR
11:10 -11.2 °C -13 °C 34371.3 hPa NW 50.7 km/h 50.7 km/h 81 % 0 mm 244.0 W/m2 CLR
11:15 -11.2 °C -13.1 °C 34371.3 hPa NW 26.9 km/h 26.9 km/h 80 % 0 mm 258.0 W/m2 CLR
11:20 -11.2 °C -13.3 °C 34371.3 hPa NNW 53.6 km/h 53.6 km/h 78 % 0 mm 274.0 W/m2 CLR
11:25 -11.2 °C -13.3 °C 34371.3 hPa NW 51.8 km/h 51.8 km/h 78 % 0 mm 309.0 W/m2 CLR
11:26 -11.2 °C -13.3 °C 34371.3 hPa NW 50.7 km/h 50.7 km/h 78 % 0 mm 294.0 W/m2 CLR
11:31 -11.2 °C -13.3 °C 34384.8 hPa NNW 50.7 km/h 50.7 km/h 78 % 0 mm 294.0 W/m2 CLR
11:36 -11.2 °C -13.2 °C 34371.3 hPa WNW 29.8 km/h 29.8 km/h 78 % 0 mm 241.0 W/m2 CLR
11:41 -11.2 °C -13.3 °C 34371.3 hPa WNW 41.7 km/h 41.7 km/h 77 % 0 mm 237.0 W/m2 CLR
11:46 -11.2 °C -13.4 °C 34384.8 hPa NW 51.8 km/h 51.8 km/h 76 % 0 mm 250.0 W/m2 CLR
11:51 -11.2 °C -13.5 °C 34371.3 hPa WNW 41.7 km/h 41.7 km/h 76 % 0 mm 304.0 W/m2 CLR
11:56 -11.2 °C -13.4 °C 34371.3 hPa NNW 41.7 km/h 41.7 km/h 76 % 0 mm 299.0 W/m2 CLR
12:01 -11.2 °C -13.4 °C 34371.3 hPa WNW 59.5 km/h 59.5 km/h 76 % 0 mm 257.0 W/m2 CLR
12:06 -11.2 °C -13.4 °C 34371.3 hPa WNW 35.7 km/h 35.7 km/h 76 % 0 mm 285.0 W/m2 CLR
12:11 -11.1 °C -13.4 °C 34371.3 hPa WNW 41.4 km/h 41.4 km/h 76 % 0 mm 265.0 W/m2 CLR
12:16 -11.1 °C -13.5 °C 34371.3 hPa NW 44.7 km/h 44.7 km/h 75 % 0 mm 279.0 W/m2 CLR
12:21 -11.1 °C -13.4 °C 34371.3 hPa NW 44.7 km/h 44.7 km/h 75 % 0 mm 329.0 W/m2 CLR
12:26 -11.1 °C -13.8 °C 34371.3 hPa NNW 50.7 km/h 50.7 km/h 72 % 0 mm 352.0 W/m2 CLR
12:31 -11 °C -13.6 °C 34371.3 hPa NW 50.7 km/h 50.7 km/h 73 % 0 mm 348.0 W/m2 CLR
12:36 -10.9 °C -13.7 °C 34371.3 hPa WNW 50.7 km/h 50.7 km/h 72 % 0 mm 413.0 W/m2 CLR
12:41 -10.8 °C -13.6 °C 34371.3 hPa NNW 50.7 km/h 50.7 km/h 72 % 0 mm 506.0 W/m2 CLR
12:46 -10.7 °C -13.7 °C 34371.3 hPa NW 50.7 km/h 50.7 km/h 70 % 0 mm 466.0 W/m2 CLR
12:51 -10.7 °C -13.5 °C 34371.3 hPa NW 35.7 km/h 35.7 km/h 71 % 0 mm 420.0 W/m2 CLR
12:56 -10.5 °C -13.4 °C 34361.1 hPa WNW 35.7 km/h 35.7 km/h 71 % 0 mm 441.0 W/m2 CLR
13:01 -10.4 °C -13.6 °C 34361.1 hPa WNW 47.6 km/h 47.6 km/h 69 % 0 mm 448.0 W/m2 CLR
13:06 -10.4 °C -13.7 °C 34361.1 hPa NW 44.7 km/h 44.7 km/h 68 % 0 mm 396.0 W/m2 CLR
13:11 -10.6 °C -13.9 °C 34361.1 hPa NNW 47.6 km/h 47.6 km/h 67 % 0 mm 369.0 W/m2 CLR
13:16 -10.7 °C -14.1 °C 34361.1 hPa NNW 47.6 km/h 47.6 km/h 67 % 0 mm 306.0 W/m2 CLR
13:21 -10.9 °C -14.3 °C 34371.3 hPa NNW 68.6 km/h 68.6 km/h 66 % 0 mm 316.0 W/m2 CLR
13:26 -10.9 °C -14.2 °C 34371.3 hPa NW 56.6 km/h 56.6 km/h 67 % 0 mm 272.0 W/m2 CLR
13:32 -10.9 °C -14.2 °C 34361.1 hPa WNW 56.6 km/h 56.6 km/h 67 % 0 mm 260.0 W/m2 CLR
13:37 -10.9 °C -14.3 °C 34371.3 hPa NNW 56.6 km/h 56.6 km/h 66 % 0 mm 348.0 W/m2 CLR
13:42 -10.9 °C -14.4 °C 34371.3 hPa WNW 50.7 km/h 50.7 km/h 66 % 0 mm 359.0 W/m2 CLR
13:47 -10.9 °C -14.5 °C 34361.1 hPa NW 53.6 km/h 53.6 km/h 65 % 0 mm 464.0 W/m2 CLR
13:52 -10.8 °C -14.2 °C 34361.1 hPa West 41.4 km/h 41.4 km/h 66 % 0 mm 510.0 W/m2 CLR
13:57 -10.6 °C -14.3 °C 34361.1 hPa WNW 59.5 km/h 59.5 km/h 64 % 0 mm 621.0 W/m2 CLR
14:02 -10.4 °C -14.3 °C 34361.1 hPa WNW 50.7 km/h 50.7 km/h 63 % 0 mm 636.0 W/m2 CLR
14:07 -10.4 °C -14.3 °C 34361.1 hPa NNW 50.7 km/h 50.7 km/h 63 % 0 mm 621.0 W/m2 CLR
14:12 -10.4 °C -14.5 °C 34347.6 hPa NW 56.6 km/h 56.6 km/h 61 % 0 mm 608.0 W/m2 CLR
14:17 -10.3 °C -14.4 °C 34347.6 hPa NW 53.6 km/h 53.6 km/h 61 % 0 mm 485.0 W/m2 CLR
14:22 -10.3 °C -14.4 °C 34361.1 hPa NW 50.7 km/h 50.7 km/h 61 % 0 mm 571.0 W/m2 CLR
14:27 -10.2 °C -14.6 °C 34361.1 hPa NW 59.5 km/h 59.5 km/h 59 % 0 mm 570.0 W/m2 CLR
14:32 -10.1 °C -14.2 °C 34347.6 hPa West 29.8 km/h 29.8 km/h 61 % 0 mm 543.0 W/m2 CLR
14:37 -9.9 °C -14.5 °C 34347.6 hPa WNW 59.5 km/h 59.5 km/h 58 % 0 mm 501.0 W/m2 CLR
14:42 -10.1 °C -14.8 °C 34347.6 hPa NW 56.6 km/h 56.6 km/h 57 % 0 mm 371.0 W/m2 CLR
14:47 -10.2 °C -14.6 °C 34361.1 hPa NNW 53.6 km/h 53.6 km/h 59 % 0 mm 531.0 W/m2 CLR
14:52 -10.2 °C -14.6 °C 34347.6 hPa WNW 50.7 km/h 50.7 km/h 59 % 0 mm 475.0 W/m2 CLR
14:57 -10.1 °C -14.5 °C 34347.6 hPa WNW 44.7 km/h 44.7 km/h 59 % 0 mm 452.0 W/m2 CLR
15:02 -10.1 °C -14.6 °C 34347.6 hPa NW 50.7 km/h 50.7 km/h 58 % 0 mm 431.0 W/m2 CLR
15:07 -10.1 °C -14.4 °C 34347.6 hPa WNW 38.8 km/h 38.8 km/h 59 % 0 mm 436.0 W/m2 CLR
15:12 -10.1 °C -14.8 °C 34347.6 hPa NW 68.6 km/h 68.6 km/h 57 % 0 mm 371.0 W/m2 CLR
15:17 -10.1 °C -14.6 °C 34347.6 hPa NW 38.8 km/h 38.8 km/h 58 % 0 mm 466.0 W/m2 CLR
15:22 -10.1 °C -14.8 °C 34347.6 hPa WNW 41.7 km/h 41.7 km/h 57 % 0 mm 496.0 W/m2 CLR
15:27 -10.1 °C -14.8 °C 34347.6 hPa WNW 38.8 km/h 38.8 km/h 57 % 0 mm 431.0 W/m2 CLR
15:32 -10.1 °C -14.9 °C 34347.6 hPa NW 50.7 km/h 50.7 km/h 56 % 0 mm 399.0 W/m2 CLR
15:37 -10.2 °C -15 °C 34347.6 hPa North 62.6 km/h 62.6 km/h 56 % 0 mm 399.0 W/m2 CLR
15:42 -10.2 °C -14.7 °C 34347.6 hPa NW 44.1 km/h 44.1 km/h 58 % 0 mm 461.0 W/m2 CLR
15:47 -10.1 °C -14.9 °C 34347.6 hPa NNW 62.1 km/h 62.1 km/h 56 % 0 mm 424.0 W/m2 CLR
15:52 -10.2 °C -15 °C 34347.6 hPa West 62.6 km/h 62.6 km/h 56 % 0 mm 394.0 W/m2 CLR
15:57 -10.2 °C -15 °C 34337.4 hPa West 47.6 km/h 47.6 km/h 56 % 0 mm 410.0 W/m2 CLR
16:02 -10.2 °C -14.9 °C 34337.4 hPa NW 41.7 km/h 41.7 km/h 56 % 0 mm 313.0 W/m2 CLR
16:07 -10.3 °C -15.2 °C 34347.6 hPa NW 53.6 km/h 53.6 km/h 55 % 0 mm 371.0 W/m2 CLR
16:12 -10.3 °C -15.1 °C 34347.6 hPa WNW 44.7 km/h 44.7 km/h 56 % 0 mm 322.0 W/m2 CLR
16:17 -10.2 °C -15.1 °C 34347.6 hPa NNW 50.7 km/h 50.7 km/h 56 % 0 mm 338.0 W/m2 CLR
16:22 -10.2 °C -14.9 °C 34361.1 hPa NNW 41.7 km/h 41.7 km/h 57 % 0 mm 336.0 W/m2 CLR
16:27 -10.2 °C -15.2 °C 34361.1 hPa WNW 50.7 km/h 50.7 km/h 54 % 0 mm 316.0 W/m2 CLR
16:32 -10.2 °C -14.9 °C 34361.1 hPa WNW 38.8 km/h 38.8 km/h 56 % 0 mm 320.0 W/m2 CLR
16:37 -10.2 °C -15.2 °C 34361.1 hPa WNW 35.7 km/h 35.7 km/h 55 % 0 mm 267.0 W/m2 CLR
16:42 -10.2 °C -15 °C 34361.1 hPa WNW 29.8 km/h 29.8 km/h 56 % 0 mm 290.0 W/m2 CLR
16:47 -10.2 °C -14.9 °C 34361.1 hPa NW 56.6 km/h 56.6 km/h 57 % 0 mm 269.0 W/m2 CLR
16:52 -10.3 °C -15.1 °C 34361.1 hPa WNW 50.7 km/h 50.7 km/h 56 % 0 mm 257.0 W/m2 CLR
16:57 -10.4 °C -15.2 °C 34361.1 hPa NW 50.7 km/h 50.7 km/h 56 % 0 mm 243.0 W/m2 CLR
17:02 -10.4 °C -15.2 °C 34361.1 hPa WNW 50.7 km/h 50.7 km/h 56 % 0 mm 227.0 W/m2 CLR
17:03 -10.4 °C -15.2 °C 34361.1 hPa West 50.7 km/h 50.7 km/h 56 % 0 mm 223.0 W/m2 CLR
17:08 -10.4 °C -15.2 °C 34361.1 hPa WNW 29.8 km/h 29.8 km/h 56 % 0 mm 223.0 W/m2 CLR
17:13 -10.4 °C -15.2 °C 34361.1 hPa NW 44.7 km/h 44.7 km/h 56 % 0 mm 199.0 W/m2 CLR
17:18 -10.5 °C -15.3 °C 34361.1 hPa NW 44.7 km/h 44.7 km/h 56 % 0 mm 181.0 W/m2 CLR
17:23 -10.6 °C -15.3 °C 34361.1 hPa NNW 44.7 km/h 44.7 km/h 56 % 0 mm 167.0 W/m2 CLR
17:28 -10.6 °C -15.2 °C 34361.1 hPa NNW 50.7 km/h 50.7 km/h 57 % 0 mm 141.0 W/m2 CLR
17:33 -10.7 °C -15.3 °C 34361.1 hPa WNW 50.7 km/h 50.7 km/h 57 % 0 mm 137.0 W/m2 CLR
17:38 -10.7 °C -15.3 °C 34361.1 hPa NW 44.7 km/h 44.7 km/h 57 % 0 mm 114.0 W/m2 CLR
17:43 -10.7 °C -15.3 °C 34371.3 hPa WNW 46.7 km/h 46.7 km/h 57 % 0 mm 100.0 W/m2 CLR
17:48 -10.8 °C -15.4 °C 34371.3 hPa NW 44.7 km/h 44.7 km/h 57 % 0 mm 83.0 W/m2 FEW
17:53 -10.9 °C -15.5 °C 34371.3 hPa NW 51.8 km/h 51.8 km/h 57 % 0 mm 77.0 W/m2 FEW
17:58 -10.9 °C -15.6 °C 34384.8 hPa NW 44.1 km/h 44.1 km/h 57 % 0 mm 63.0 W/m2 FEW
18:03 -11.1 °C -15.5 °C 34384.8 hPa West 47.6 km/h 47.6 km/h 58 % 0 mm 53.0 W/m2 SCT
18:08 -11.1 °C -15.6 °C 34384.8 hPa WNW 50.7 km/h 50.7 km/h 58 % 0 mm 47.0 W/m2 SCT
18:13 -11.2 °C -15.6 °C 34384.8 hPa WNW 38.8 km/h 38.8 km/h 58 % 0 mm 37.0 W/m2 BKN
18:18 -11.2 °C -15.7 °C 34395 hPa West 44.7 km/h 44.7 km/h 58 % 0 mm 30.0 W/m2 BKN
18:23 -11.3 °C -15.6 °C 34395 hPa WNW 38.8 km/h 38.8 km/h 59 % 0 mm 23.0 W/m2 BKN
18:28 -11.4 °C -15.6 °C 34395 hPa NW 47.6 km/h 47.6 km/h 60 % 0 mm 16.0 W/m2 BKN
18:33 -11.5 °C -15.5 °C 34405.1 hPa NW 50.7 km/h 50.7 km/h 61 % 0 mm 11.0 W/m2 BKN
18:38 -11.6 °C -15.6 °C 34405.1 hPa West 41.4 km/h 41.4 km/h 61 % 0 mm 7.0 W/m2 BKN
18:43 -11.6 °C -15.6 °C 34418.7 hPa West 53.6 km/h 53.6 km/h 61 % 0 mm 0.0 W/m2 OVC
18:48 -11.7 °C -15.7 °C 34418.7 hPa WNW 29.8 km/h 29.8 km/h 61 % 0 mm 0.0 W/m2 OVC
18:53 -11.8 °C -15.8 °C 34418.7 hPa West 29.8 km/h 29.8 km/h 61 % 0 mm 0.0 W/m2 OVC
18:58 -11.8 °C -15.8 °C 34418.7 hPa West 15 km/h 15 km/h 61 % 0 mm 0.0 W/m2 CLR
19:03 -11.9 °C -16 °C 34428.8 hPa WNW 38.8 km/h 38.8 km/h 60 % 0 mm 0.0 W/m2 CLR
19:08 -11.9 °C -15.9 °C 34428.8 hPa West 29.8 km/h 29.8 km/h 61 % 0 mm 0.0 W/m2 CLR
19:13 -11.9 °C -16.1 °C 34442.4 hPa WNW 44.7 km/h 44.7 km/h 60 % 0 mm 0.0 W/m2 CLR
19:18 -12.1 °C -16.1 °C 34442.4 hPa WNW 32.8 km/h 32.8 km/h 61 % 0 mm 0.0 W/m2 CLR
19:23 -12.1 °C -15.9 °C 34442.4 hPa WNW 29.8 km/h 29.8 km/h 63 % 0 mm 0.0 W/m2 CLR
19:28 -12.2 °C -15.9 °C 34442.4 hPa West 47.6 km/h 47.6 km/h 63 % 0 mm 0.0 W/m2 CLR
19:33 -12.3 °C -15.9 °C 34452.6 hPa West 41.7 km/h 41.7 km/h 64 % 0 mm 0.0 W/m2 CLR
19:38 -12.3 °C -15.9 °C 34452.6 hPa West 38.8 km/h 38.8 km/h 64 % 0 mm 0.0 W/m2 CLR
19:43 -12.3 °C -15.9 °C 34452.6 hPa West 53.6 km/h 53.6 km/h 64 % 0 mm 0.0 W/m2 CLR
19:48 -12.4 °C -16 °C 34452.6 hPa West 32.8 km/h 32.8 km/h 64 % 0 mm 0.0 W/m2 CLR
19:53 -12.4 °C -15.9 °C 34452.6 hPa West 38.8 km/h 38.8 km/h 65 % 0 mm 0.0 W/m2 CLR
19:58 -12.6 °C -16.2 °C 34462.7 hPa WNW 38.8 km/h 38.8 km/h 64 % 0 mm 0.0 W/m2 CLR
20:03 -12.6 °C -16.1 °C 34462.7 hPa West 49.2 km/h 49.2 km/h 65 % 0 mm 0.0 W/m2 CLR
20:08 -12.6 °C -16.2 °C 34462.7 hPa WNW 38.8 km/h 38.8 km/h 64 % 0 mm 0.0 W/m2 CLR
20:13 -12.7 °C -16.2 °C 34462.7 hPa NW 50.7 km/h 50.7 km/h 65 % 0 mm 0.0 W/m2 CLR
20:18 -12.7 °C -16.2 °C 34476.3 hPa NW 47.6 km/h 47.6 km/h 65 % 0 mm 0.0 W/m2 CLR
20:23 -12.8 °C -16.2 °C 34476.3 hPa WNW 29.8 km/h 29.8 km/h 65 % 0 mm 0.0 W/m2 CLR
20:28 -12.8 °C -16.2 °C 34476.3 hPa WNW 26.9 km/h 26.9 km/h 65 % 0 mm 0.0 W/m2 CLR
20:33 -12.7 °C -16.3 °C 34476.3 hPa WNW 32.8 km/h 32.8 km/h 64 % 0 mm 0.0 W/m2 CLR
20:38 -12.7 °C -16.3 °C 34476.3 hPa West 31.1 km/h 31.1 km/h 64 % 0 mm 0.0 W/m2 CLR
20:43 -12.8 °C -16.5 °C 34476.3 hPa West 38.8 km/h 38.8 km/h 63 % 0 mm 0.0 W/m2 CLR
20:48 -12.8 °C -16.5 °C 34486.4 hPa West 44.7 km/h 44.7 km/h 63 % 0 mm 0.0 W/m2 CLR
20:53 -12.8 °C -16.5 °C 34486.4 hPa WNW 29.8 km/h 29.8 km/h 63 % 0 mm 0.0 W/m2 CLR
20:58 -12.8 °C -16.4 °C 34486.4 hPa West 29.8 km/h 29.8 km/h 64 % 0 mm 0.0 W/m2 CLR
21:03 -12.9 °C -16.5 °C 34486.4 hPa West 20.9 km/h 20.9 km/h 64 % 0 mm 0.0 W/m2 CLR
21:08 -13 °C -16.6 °C 34496.6 hPa WSW 23.8 km/h 23.8 km/h 64 % 0 mm 0.0 W/m2 CLR
21:13 -13 °C -16.6 °C 34496.6 hPa West 33.6 km/h 33.6 km/h 64 % 0 mm 0.0 W/m2 CLR
21:18 -13 °C -16.7 °C 34510.1 hPa West 29.8 km/h 29.8 km/h 63 % 0 mm 0.0 W/m2 CLR
21:23 -13 °C -16.7 °C 34510.1 hPa West 32.8 km/h 32.8 km/h 63 % 0 mm 0.0 W/m2 CLR
21:28 -13 °C -16.7 °C 34510.1 hPa WNW 41.7 km/h 41.7 km/h 63 % 0 mm 0.0 W/m2 CLR
21:33 -13 °C -16.6 °C 34510.1 hPa WNW 38.8 km/h 38.8 km/h 64 % 0 mm 0.0 W/m2 CLR
21:38 -13.1 °C -16.7 °C 34510.1 hPa West 35.7 km/h 35.7 km/h 64 % 0 mm 0.0 W/m2 CLR
21:43 -13.2 °C -16.7 °C 34510.1 hPa WNW 38.8 km/h 38.8 km/h 64 % 0 mm 0.0 W/m2 CLR
21:48 -13.2 °C -16.7 °C 34510.1 hPa West 32.8 km/h 32.8 km/h 64 % 0 mm 0.0 W/m2 CLR
21:53 -13.2 °C -16.7 °C 34520.3 hPa West 54.4 km/h 54.4 km/h 64 % 0 mm 0.0 W/m2 CLR
21:58 -13.2 °C -16.7 °C 34520.3 hPa West 35.7 km/h 35.7 km/h 65 % 0 mm 0.0 W/m2 CLR
22:03 -13.2 °C -16.7 °C 34520.3 hPa West 41.7 km/h 41.7 km/h 65 % 0 mm 0.0 W/m2 CLR
22:09 -13.2 °C -16.7 °C 34520.3 hPa West 44.7 km/h 44.7 km/h 65 % 0 mm 0.0 W/m2 CLR
22:14 -13.3 °C -16.7 °C 34520.3 hPa WSW 29.8 km/h 30.7 km/h 65 % 0 mm 0.0 W/m2 CLR
22:19 -13.3 °C -16.7 °C 34520.3 hPa WNW 29.8 km/h 29.8 km/h 65 % 0 mm 0.0 W/m2 CLR
22:24 -13.4 °C -16.8 °C 34520.3 hPa West 32.8 km/h 32.8 km/h 65 % 0 mm 0.0 W/m2 CLR
22:29 -13.3 °C -16.8 °C 34520.3 hPa West 38.8 km/h 38.8 km/h 65 % 0 mm 0.0 W/m2 CLR
22:34 -13.4 °C -16.8 °C 34520.3 hPa WSW 41.7 km/h 41.7 km/h 65 % 0 mm 0.0 W/m2 CLR
22:39 -13.4 °C -16.8 °C 34533.8 hPa West 35.7 km/h 35.7 km/h 65 % 0 mm 0.0 W/m2 CLR
22:44 -13.4 °C -16.9 °C 34533.8 hPa West 47.6 km/h 47.6 km/h 64 % 0 mm 0.0 W/m2 CLR
22:49 -13.4 °C -16.9 °C 34533.8 hPa West 32.8 km/h 32.8 km/h 64 % 0 mm 0.0 W/m2 CLR
22:54 -13.4 °C -17 °C 34533.8 hPa West 47.6 km/h 47.6 km/h 64 % 0 mm 0.0 W/m2 CLR
22:59 -13.4 °C -17 °C 34533.8 hPa West 44.7 km/h 44.7 km/h 64 % 0 mm 0.0 W/m2 CLR
23:04 -13.4 °C -17 °C 34533.8 hPa West 50.7 km/h 50.7 km/h 64 % 0 mm 0.0 W/m2 CLR
23:09 -13.4 °C -17.1 °C 34533.8 hPa WNW 41.7 km/h 41.7 km/h 63 % 0 mm 0.0 W/m2 CLR
23:14 -13.5 °C -17.1 °C 34544 hPa West 49.2 km/h 49.2 km/h 64 % 0 mm 0.0 W/m2 CLR
23:19 -13.5 °C -17.1 °C 34544 hPa WSW 38.8 km/h 38.8 km/h 64 % 0 mm 0.0 W/m2 CLR
23:24 -13.6 °C -17.1 °C 34533.8 hPa West 29.8 km/h 29.8 km/h 64 % 0 mm 0.0 W/m2 CLR
23:30 -13.6 °C -17.1 °C 34533.8 hPa SW 29.8 km/h 29.8 km/h 64 % 0 mm 0.0 W/m2 CLR
23:35 -13.7 °C -17.2 °C 34533.8 hPa WSW 23.8 km/h 23.8 km/h 64 % 0 mm 0.0 W/m2 CLR
23:40 -13.7 °C -17.2 °C 34544 hPa WSW 26.9 km/h 26.9 km/h 64 % 0 mm 0.0 W/m2 CLR
23:45 -13.7 °C -17.3 °C 34544 hPa West 20.8 km/h 20.8 km/h 64 % 0 mm 0.0 W/m2 CLR
23:50 -13.8 °C -17.2 °C 34544 hPa West 20.9 km/h 20.9 km/h 65 % 0 mm 0.0 W/m2 CLR
23:55 -13.8 °C -17.2 °C 34544 hPa WSW 29.8 km/h 29.8 km/h 65 % 0 mm 0.0 W/m2 CLR
Lo Temps de Massalio
Compliments of Weather Underground - 1.25 mb